Time;durP1;ratioP1;P1;durP2;ratioP2;P2;SDS_P1;SDS_P2;PMS_P1;PMS_P2;Temp;Humidity;BMP_temperature;BMP_pressure;BME280_temperature;BME280_humidity;BME280_pressure;Samples;Min_cycle;Max_cycle;Signal;HPM_P1;HPM_P2
2020/12/26 00:00:32;;;;;;;14.32;13.23;;;-0.20;73.30;;;;;;4927726;29;20113;-73
2020/12/26 00:03:03;;;;;;;14.30;13.07;;;-0.20;73.20;;;;;;4941734;29;20056;-73
2020/12/26 00:05:36;;;;;;;13.90;12.60;;;-0.30;73.30;;;;;;4927808;29;20060;-74
2020/12/26 00:08:08;;;;;;;14.38;13.27;;;-0.30;73.00;;;;;;4926724;30;20055;-73
2020/12/26 00:10:39;;;;;;;14.05;12.90;;;-0.30;73.50;;;;;;4927441;29;20055;-72
2020/12/26 00:13:11;;;;;;;14.13;12.90;;;-0.30;73.40;;;;;;4940997;29;20044;-73
2020/12/26 00:15:42;;;;;;;13.93;12.73;;;-0.30;73.20;;;;;;4940966;29;20063;-73
2020/12/26 00:18:14;;;;;;;13.57;12.35;;;-0.20;73.00;;;;;;4941333;29;20047;-73
2020/12/26 00:20:45;;;;;;;14.07;12.88;;;-0.30;73.20;;;;;;4926893;29;20054;-73
2020/12/26 00:23:17;;;;;;;13.50;12.40;;;-0.20;72.90;;;;;;4926850;30;20108;-74
2020/12/26 00:25:48;;;;;;;14.13;12.93;;;-0.30;72.90;;;;;;4926766;29;20693;-73
2020/12/26 00:28:20;;;;;;;13.88;12.77;;;-0.30;72.70;;;;;;4928098;30;20043;-73
2020/12/26 00:30:51;;;;;;;13.95;12.85;;;-0.30;72.70;;;;;;4927689;29;20075;-73
2020/12/26 00:33:23;;;;;;;13.80;12.60;;;-0.30;72.80;;;;;;4927869;30;20064;-73
2020/12/26 00:35:54;;;;;;;13.73;12.63;;;-0.30;72.50;;;;;;4937911;29;20073;-74
2020/12/26 00:38:26;;;;;;;13.90;12.80;;;-0.30;72.70;;;;;;4930615;29;20113;-73
2020/12/26 00:40:58;;;;;;;14.05;12.77;;;-0.30;72.00;;;;;;4926764;29;20056;-73
2020/12/26 00:43:29;;;;;;;13.43;12.32;;;-0.30;72.30;;;;;;4927268;29;20702;-74
2020/12/26 00:46:00;;;;;;;13.60;12.50;;;-0.30;72.40;;;;;;4940444;29;20048;-73
2020/12/26 00:48:32;;;;;;;13.90;12.80;;;-0.30;73.20;;;;;;4927199;30;20048;-74
2020/12/26 00:51:03;;;;;;;14.13;12.85;;;-0.30;72.60;;;;;;4940307;29;20044;-74
2020/12/26 00:53:39;;;;;;;14.02;12.82;;;-0.40;72.00;;;;;;4941435;29;20066;-73
2020/12/26 00:56:10;;;;;;;13.23;12.13;;;-0.40;72.00;;;;;;4926504;29;20605;-73
2020/12/26 00:58:43;;;;;;;13.50;12.40;;;-0.40;72.50;;;;;;4926276;29;20534;-73
2020/12/26 01:01:17;;;;;;;15.07;13.55;;;-0.40;72.90;;;;;;4939582;29;20502;-74
2020/12/26 01:04:11;;;;;;;13.57;12.40;;;-0.30;72.80;;;;;;4927291;29;20056;-73
2020/12/26 01:06:42;;;;;;;13.25;12.15;;;-0.30;72.70;;;;;;4925929;29;20392;-74
2020/12/26 01:09:13;;;;;;;14.02;12.93;;;-0.40;72.00;;;;;;4927298;30;20116;-74
2020/12/26 01:11:45;;;;;;;13.80;12.70;;;-0.40;72.60;;;;;;4925802;29;20495;-74
2020/12/26 01:14:17;;;;;;;13.80;12.60;;;-0.40;72.80;;;;;;4927753;30;20531;-74
2020/12/26 01:16:49;;;;;;;13.57;12.48;;;-0.40;72.90;;;;;;4924761;29;20379;-74
2020/12/26 01:19:21;;;;;;;13.00;11.95;;;-0.40;72.80;;;;;;4927055;30;20104;-74
2020/12/26 01:21:54;;;;;;;13.50;12.40;;;-0.40;72.50;;;;;;4924179;29;20039;-74
2020/12/26 01:24:26;;;;;;;13.68;12.57;;;-0.40;72.00;;;;;;4926819;30;20063;-74
2020/12/26 01:26:57;;;;;;;13.27;12.15;;;-0.40;72.40;;;;;;4929856;30;20044;-74
2020/12/26 01:29:28;;;;;;;13.20;12.10;;;-0.40;72.30;;;;;;4925701;30;20048;-72
2020/12/26 01:32:00;;;;;;;13.30;12.18;;;-0.40;72.50;;;;;;4940684;29;20058;-72
2020/12/26 01:34:32;;;;;;;13.52;12.20;;;-0.40;72.50;;;;;;4939872;29;20048;-72
2020/12/26 01:37:03;;;;;;;12.48;11.48;;;-0.30;72.60;;;;;;4926722;29;20047;-73
2020/12/26 01:39:35;;;;;;;13.43;12.32;;;-0.40;72.10;;;;;;4926081;30;20114;-72
2020/12/26 01:42:06;;;;;;;13.60;12.40;;;-0.40;72.00;;;;;;4924874;29;20519;-73
2020/12/26 01:44:39;;;;;;;14.23;12.77;;;-0.40;71.70;;;;;;4926302;30;20526;-73
2020/12/26 01:47:15;;;;;;;13.65;12.55;;;-0.40;72.00;;;;;;4926051;29;20554;-73
2020/12/26 01:49:47;;;;;;;13.95;12.82;;;-0.40;72.00;;;;;;4923827;30;20040;-73
2020/12/26 01:52:18;;;;;;;13.82;12.50;;;-0.40;71.80;;;;;;4925479;29;20059;-73
2020/12/26 01:54:52;;;;;;;13.00;11.93;;;-0.40;71.80;;;;;;4925245;30;20048;-74
2020/12/26 01:57:33;;;;;;;13.13;12.02;;;-0.40;71.50;;;;;;4925265;30;20054;-73
2020/12/26 02:00:05;;;;;;;13.02;12.02;;;-0.40;71.60;;;;;;4939568;29;20059;-73
2020/12/26 02:02:47;;;;;;;13.32;12.13;;;-0.40;71.60;;;;;;4925557;30;20634;-73
2020/12/26 02:05:18;;;;;;;12.15;11.25;;;-0.40;71.50;;;;;;4924591;29;20209;-73
2020/12/26 02:07:50;;;;;;;12.90;11.80;;;-0.40;71.20;;;;;;4926178;30;20840;-73
2020/12/26 02:10:21;;;;;;;12.77;11.77;;;-0.40;71.40;;;;;;4925859;29;20052;-72
2020/12/26 02:12:54;;;;;;;12.95;11.85;;;-0.40;71.50;;;;;;4926138;30;20079;-74
2020/12/26 02:15:25;;;;;;;12.70;11.70;;;-0.40;71.50;;;;;;4939376;29;20063;-73
2020/12/26 02:17:57;;;;;;;12.65;11.65;;;-0.50;71.60;;;;;;4926247;30;20040;-74
2020/12/26 02:20:38;;;;;;;13.27;12.07;;;-0.50;72.10;;;;;;4925566;29;20055;-74
2020/12/26 02:23:10;;;;;;;13.13;12.07;;;-0.50;72.00;;;;;;4924778;30;20482;-73
2020/12/26 02:25:42;;;;;;;13.07;11.98;;;-0.50;72.00;;;;;;4925123;29;20194;-71
2020/12/26 02:28:13;;;;;;;13.00;12.00;;;-0.50;72.40;;;;;;4926542;30;20486;-73
2020/12/26 02:30:44;;;;;;;12.68;11.55;;;-0.50;71.30;;;;;;4924921;29;20051;-73
2020/12/26 02:33:17;;;;;;;12.70;11.70;;;-0.60;71.80;;;;;;4939633;29;20680;-72
2020/12/26 02:35:49;;;;;;;12.90;11.80;;;-0.60;72.40;;;;;;4925228;29;20072;-73
2020/12/26 02:38:21;;;;;;;12.93;11.82;;;-0.60;71.90;;;;;;4924720;29;20183;-72
2020/12/26 02:40:54;;;;;;;13.18;11.95;;;-0.60;71.60;;;;;;4939579;29;20127;-72
2020/12/26 02:43:27;;;;;;;12.60;11.60;;;-0.50;71.80;;;;;;4925566;30;20047;-73
2020/12/26 02:45:58;;;;;;;12.70;11.65;;;-0.50;71.50;;;;;;4925401;29;20052;-73
2020/12/26 02:48:30;;;;;;;12.57;11.57;;;-0.50;71.20;;;;;;4924839;30;20032;-73
2020/12/26 02:51:01;;;;;;;12.90;11.90;;;-0.50;71.30;;;;;;4925494;29;20048;-73
2020/12/26 02:53:33;;;;;;;12.30;11.20;;;-0.50;71.50;;;;;;4925771;30;20060;-72
2020/12/26 02:56:04;;;;;;;12.93;11.90;;;-0.50;71.30;;;;;;4925261;29;20059;-73
2020/12/26 02:58:37;;;;;;;12.73;11.73;;;-0.50;70.90;;;;;;4925530;30;20067;-72
2020/12/26 03:01:08;;;;;;;13.00;11.82;;;-0.40;70.70;;;;;;4925336;29;20055;-72
2020/12/26 03:03:40;;;;;;;12.73;11.65;;;-0.40;70.70;;;;;;4924974;30;20085;-73
2020/12/26 03:06:14;;;;;;;12.30;11.30;;;-0.50;70.40;;;;;;4925876;29;20589;-73
2020/12/26 03:08:45;;;;;;;12.80;11.60;;;-0.50;70.50;;;;;;4924906;30;20044;-73
2020/12/26 03:11:17;;;;;;;12.45;11.45;;;-0.40;70.70;;;;;;4940577;29;20664;-73
2020/12/26 03:13:49;;;;;;;13.15;12.05;;;-0.50;70.80;;;;;;4942476;29;20060;-73
2020/12/26 03:16:20;;;;;;;12.80;11.73;;;-0.50;70.60;;;;;;4928516;29;20056;-73
2020/12/26 03:18:52;;;;;;;13.63;12.43;;;-0.50;70.50;;;;;;4928278;30;20066;-73
2020/12/26 03:21:23;;;;;;;12.57;11.38;;;-0.50;70.20;;;;;;4940179;29;20051;-73
2020/12/26 03:23:55;;;;;;;12.02;11.02;;;-0.50;70.70;;;;;;4928830;30;20087;-73
2020/12/26 03:26:26;;;;;;;12.38;11.30;;;-0.50;70.50;;;;;;4941770;29;20074;-72
2020/12/26 03:28:58;;;;;;;12.80;11.73;;;-0.50;70.50;;;;;;4929147;30;20118;-73
2020/12/26 03:31:29;;;;;;;12.40;11.40;;;-0.50;70.40;;;;;;4928471;29;20105;-72
2020/12/26 03:34:00;;;;;;;12.75;11.65;;;-0.50;70.60;;;;;;4929168;30;20052;-73
2020/12/26 03:36:32;;;;;;;12.50;11.40;;;-0.50;69.60;;;;;;4941700;29;20474;-73
2020/12/26 03:39:03;;;;;;;12.23;11.23;;;-0.50;70.40;;;;;;4926123;30;20064;-73
2020/12/26 03:41:35;;;;;;;12.02;11.02;;;-0.50;70.20;;;;;;4941997;29;20125;-73
2020/12/26 03:44:06;;;;;;;12.45;11.35;;;-0.60;69.90;;;;;;4928518;30;20047;-73
2020/12/26 03:46:38;;;;;;;12.07;11.07;;;-0.60;71.00;;;;;;4927692;29;20055;-72
2020/12/26 03:49:09;;;;;;;11.55;10.65;;;-0.60;70.50;;;;;;4927793;30;20063;-73
2020/12/26 03:51:41;;;;;;;12.55;11.55;;;-0.60;70.30;;;;;;4927539;29;20044;-73
2020/12/26 03:54:13;;;;;;;12.02;11.02;;;-0.60;70.40;;;;;;4912697;30;20455;-72
2020/12/26 03:56:44;;;;;;;12.05;11.05;;;-0.70;69.60;;;;;;4927363;29;20056;-72
2020/12/26 03:59:18;;;;;;;12.10;11.10;;;-0.70;69.50;;;;;;4941535;29;20110;-73
2020/12/26 04:01:49;;;;;;;12.05;11.05;;;-0.70;69.90;;;;;;4927772;29;20059;-73
2020/12/26 04:04:21;;;;;;;11.90;10.90;;;-0.70;69.20;;;;;;4928524;30;20436;-73
2020/12/26 04:06:52;;;;;;;11.55;10.65;;;-0.70;69.50;;;;;;4941386;29;20047;-73
2020/12/26 04:09:23;;;;;;;12.05;10.95;;;-0.70;69.40;;;;;;4941870;29;20115;-73
2020/12/26 04:11:55;;;;;;;11.57;10.68;;;-0.80;69.30;;;;;;4925397;29;20054;-72
2020/12/26 04:14:26;;;;;;;11.90;10.85;;;-0.80;69.70;;;;;;4927359;30;20055;-73
2020/12/26 04:16:58;;;;;;;12.32;11.05;;;-0.70;69.90;;;;;;4927781;29;20266;-73
2020/12/26 04:19:30;;;;;;;11.90;10.90;;;-0.70;69.50;;;;;;4941734;29;20051;-72
2020/12/26 04:22:02;;;;;;;12.23;11.13;;;-0.70;69.90;;;;;;4940135;29;20055;-72
2020/12/26 04:24:34;;;;;;;11.52;10.63;;;-0.70;69.20;;;;;;4926640;30;20048;-73
2020/12/26 04:27:05;;;;;;;12.02;11.10;;;-0.70;69.10;;;;;;4927321;29;20055;-73
2020/12/26 04:29:38;;;;;;;11.90;10.90;;;-0.70;69.10;;;;;;4927818;30;20071;-72
2020/12/26 04:32:10;;;;;;;11.75;10.75;;;-0.70;69.40;;;;;;4927497;29;20078;-72
2020/12/26 04:34:50;;;;;;;12.10;11.10;;;-0.70;70.00;;;;;;4927004;30;20052;-72
2020/12/26 04:37:21;;;;;;;;;;;-0.70;69.80;;;;;;4926996;29;20067;-73
2020/12/26 04:39:53;;;;;;;11.93;11.02;;;-0.80;69.60;;;;;;4925272;30;19934;-73
2020/12/26 04:42:25;;;;;;;11.85;10.93;;;-0.80;68.60;;;;;;4923917;30;20052;-73
2020/12/26 04:44:58;;;;;;;12.10;11.18;;;-0.80;69.30;;;;;;4928032;30;20043;-73
2020/12/26 04:47:31;;;;;;;11.65;10.70;;;-0.80;69.10;;;;;;4927190;29;20511;-73
2020/12/26 04:50:03;;;;;;;12.55;11.60;;;-0.70;69.50;;;;;;4938516;29;20059;-73
2020/12/26 04:52:38;;;;;;;12.38;11.38;;;-0.70;69.50;;;;;;4923874;29;20096;-73
2020/12/26 04:55:10;;;;;;;12.18;11.18;;;-0.70;69.00;;;;;;4926281;29;20044;-73
2020/12/26 04:57:42;;;;;;;11.57;10.68;;;-0.70;68.50;;;;;;4927790;30;20109;-73
2020/12/26 05:00:14;;;;;;;12.07;11.07;;;-0.70;68.80;;;;;;4925646;29;20052;-72
2020/12/26 05:02:50;;;;;;;11.73;10.80;;;-0.80;67.00;;;;;;4926443;30;20055;-73
2020/12/26 05:05:22;;;;;;;11.82;10.82;;;-0.80;68.00;;;;;;4926342;29;20048;-73
2020/12/26 05:07:54;;;;;;;11.40;10.50;;;-0.80;67.00;;;;;;4927378;30;20507;-73
2020/12/26 05:10:26;;;;;;;12.02;11.02;;;-0.80;68.20;;;;;;4926125;29;21141;-73
2020/12/26 05:12:58;;;;;;;11.88;10.88;;;-0.80;66.70;;;;;;4927452;30;20072;-73
2020/12/26 05:15:30;;;;;;;11.73;10.82;;;-0.80;67.10;;;;;;4940412;29;20554;-73
2020/12/26 05:18:02;;;;;;;11.35;10.45;;;-0.80;66.90;;;;;;4927267;30;20047;-73
2020/12/26 05:20:34;;;;;;;11.77;10.88;;;-0.80;67.00;;;;;;4926495;29;21418;-73
2020/12/26 05:23:16;;;;;;;12.52;11.52;;;-0.80;67.80;;;;;;4926790;30;20051;-73
2020/12/26 05:25:50;;;;;;;12.27;11.18;;;-0.80;68.20;;;;;;4925813;29;20044;-73
2020/12/26 05:28:25;;;;;;;12.30;11.20;;;-0.80;68.30;;;;;;4926862;30;20043;-73
2020/12/26 05:30:57;;;;;;;12.35;11.35;;;-0.80;68.50;;;;;;4926345;29;20650;-73
2020/12/26 05:33:30;;;;;;;12.13;11.13;;;-0.70;69.20;;;;;;4926474;30;20225;-73
2020/12/26 05:36:04;;;;;;;12.40;11.40;;;-0.70;69.20;;;;;;4939295;29;20051;-73
2020/12/26 05:38:36;;;;;;;12.63;11.55;;;-0.70;69.20;;;;;;4925146;30;20418;-74
2020/12/26 05:41:09;;;;;;;12.82;11.70;;;-0.70;69.30;;;;;;4925721;29;20051;-74
2020/12/26 05:43:49;;;;;;;12.20;11.20;;;-0.70;69.50;;;;;;4938475;29;20036;-73
2020/12/26 05:46:21;;;;;;;11.90;11.00;;;-0.70;69.70;;;;;;4925707;29;20097;-73
2020/12/26 05:49:26;;;;;;;12.07;11.18;;;-0.80;69.80;;;;;;4940018;29;20116;-73
2020/12/26 05:52:03;;;;;;;12.30;11.30;;;-0.80;69.60;;;;;;4925629;29;20633;-73
2020/12/26 05:54:36;;;;;;;12.27;11.18;;;-0.80;69.70;;;;;;4939649;29;20062;-73
2020/12/26 05:57:08;;;;;;;12.18;11.23;;;-0.80;69.80;;;;;;4924697;29;20060;-73
2020/12/26 05:59:45;;;;;;;13.00;11.82;;;-0.80;69.30;;;;;;4925891;30;20048;-73
2020/12/26 06:02:25;;;;;;;12.60;11.60;;;-0.90;69.80;;;;;;4922811;29;20120;-73
2020/12/26 06:04:58;;;;;;;12.18;11.18;;;-0.90;69.80;;;;;;4925338;30;20044;-73
2020/12/26 06:07:35;;;;;;;12.80;11.80;;;-1.00;69.80;;;;;;4925519;29;20056;-74
2020/12/26 06:10:08;;;;;;;12.38;11.38;;;-1.00;70.10;;;;;;4923542;29;20051;-74
2020/12/26 06:12:41;;;;;;;12.65;11.65;;;-1.00;70.40;;;;;;4938180;29;20068;-74
2020/12/26 06:15:19;;;;;;;12.48;11.38;;;-1.00;70.50;;;;;;4924148;29;20547;-74
2020/12/26 06:17:53;;;;;;;12.73;11.63;;;-1.00;70.60;;;;;;4925293;30;20204;-74
2020/12/26 06:20:24;;;;;;;13.48;12.27;;;-1.00;71.00;;;;;;4924318;29;20060;-74
2020/12/26 06:23:18;;;;;;;12.95;11.88;;;-1.00;70.80;;;;;;4938738;29;20047;-74
2020/12/26 06:25:55;;;;;;;13.00;11.90;;;-1.00;70.70;;;;;;4924762;29;20082;-73
2020/12/26 06:28:34;;;;;;;12.80;11.70;;;-0.90;71.40;;;;;;4938468;29;20121;-73
2020/12/26 06:31:08;;;;;;;14.07;12.80;;;-1.00;71.20;;;;;;4922345;29;20109;-73
2020/12/26 06:33:58;;;;;;;14.52;13.25;;;-1.00;70.80;;;;;;4925232;30;20056;-73
2020/12/26 06:36:30;;;;;;;12.57;11.57;;;-1.00;70.80;;;;;;4923994;29;20051;-73
2020/12/26 06:39:28;;;;;;;12.60;11.60;;;-1.00;71.10;;;;;;4920117;30;20108;-74
2020/12/26 06:42:14;;;;;;;11.65;10.55;;;-1.10;69.60;;;;;;4937378;29;20485;-74
2020/12/26 06:44:47;;;;;;;12.75;11.63;;;-1.10;69.70;;;;;;4924454;30;20048;-74
2020/12/26 06:47:36;;;;;;;12.00;11.00;;;-1.10;69.50;;;;;;4928136;29;20131;-73
2020/12/26 06:50:24;;;;;;;12.50;11.40;;;-1.20;69.30;;;;;;4941053;29;20055;-73
2020/12/26 06:52:55;;;;;;;12.25;11.15;;;-1.40;67.90;;;;;;4928435;30;20044;-73
2020/12/26 06:55:53;;;;;;;12.90;11.80;;;-1.60;68.10;;;;;;4928040;29;20055;-72
2020/12/26 06:58:24;;;;;;;12.70;11.63;;;-2.00;68.60;;;;;;4928885;29;20068;-72
2020/12/26 07:00:56;;;;;;;12.18;11.15;;;-2.10;69.70;;;;;;4941903;29;20060;-72
2020/12/26 07:03:31;;;;;;;12.65;11.45;;;-2.30;70.90;;;;;;4942354;29;20422;-72
2020/12/26 07:06:03;;;;;;;13.02;11.93;;;-2.30;72.50;;;;;;4918592;30;20052;-72
2020/12/26 07:08:35;;;;;;;12.15;11.15;;;-2.40;73.00;;;;;;4927922;30;20039;-73
2020/12/26 07:11:23;;;;;;;13.00;11.70;;;-2.40;73.30;;;;;;4927918;29;20074;-73
2020/12/26 07:13:55;;;;;;;12.23;11.13;;;-2.40;74.50;;;;;;4939567;29;20052;-73
2020/12/26 07:16:42;;;;;;;12.77;11.68;;;-2.40;74.00;;;;;;4921681;30;20052;-72
2020/12/26 07:19:19;;;;;;;12.38;11.35;;;-2.30;74.00;;;;;;4926744;30;20055;-72
2020/12/26 07:22:11;;;;;;;12.70;11.70;;;-2.30;74.60;;;;;;4928662;29;20063;-73
2020/12/26 07:24:48;;;;;;;13.38;12.27;;;-2.30;74.70;;;;;;4928810;30;20044;-72
2020/12/26 07:27:35;;;;;;;13.00;11.80;;;-2.30;74.60;;;;;;4928160;29;20138;-72
2020/12/26 07:30:11;;;;;;;12.63;11.63;;;-2.20;73.90;;;;;;4926601;29;20044;-71
2020/12/26 07:32:45;;;;;;;12.48;11.38;;;-2.20;73.00;;;;;;4928393;30;20645;-72
2020/12/26 07:35:19;;;;;;;12.10;11.10;;;-2.30;74.00;;;;;;4927265;29;20043;-73
2020/12/26 07:37:51;;;;;;;12.73;11.65;;;-2.20;73.40;;;;;;4928054;30;20055;-72
2020/12/26 07:40:27;;;;;;;12.50;11.40;;;-2.20;73.70;;;;;;4926730;29;20036;-73
2020/12/26 07:43:11;;;;;;;12.48;11.48;;;-2.10;74.50;;;;;;4926842;30;20075;-72
2020/12/26 07:45:45;;;;;;;12.52;11.45;;;-2.00;73.60;;;;;;4927889;29;20075;-73
2020/12/26 07:48:17;;;;;;;12.40;11.40;;;-2.00;73.30;;;;;;4926760;30;20058;-74
2020/12/26 07:50:49;;;;;;;14.38;13.07;;;-1.90;73.20;;;;;;4927334;29;20048;-74
2020/12/26 07:53:20;;;;;;;12.57;11.48;;;-1.90;73.40;;;;;;4927407;30;20109;-74
2020/12/26 07:55:51;;;;;;;13.93;12.63;;;-1.90;73.10;;;;;;4925421;29;20052;-74
2020/12/26 07:58:29;;;;;;;13.63;12.43;;;-1.90;73.00;;;;;;4941318;29;20518;-74
2020/12/26 08:01:00;;;;;;;13.23;11.93;;;-1.80;72.80;;;;;;4925485;30;20050;-74
2020/12/26 08:03:32;;;;;;;12.35;11.20;;;-1.70;72.80;;;;;;4927521;30;20044;-74
2020/12/26 08:06:06;;;;;;;13.32;12.02;;;-1.70;72.30;;;;;;4924780;29;20055;-74
2020/12/26 08:08:38;;;;;;;13.45;12.15;;;-1.60;72.00;;;;;;4923097;30;20051;-74
2020/12/26 08:11:10;;;;;;;12.38;11.23;;;-1.60;71.80;;;;;;4925961;29;20063;-73
2020/12/26 08:13:42;;;;;;;13.85;12.40;;;-1.60;71.90;;;;;;4926783;30;20051;-73
2020/12/26 08:16:15;;;;;;;12.48;11.38;;;-1.60;71.70;;;;;;4926589;29;20067;-73
2020/12/26 08:18:46;;;;;;;13.30;11.38;;;-1.60;71.20;;;;;;4926576;30;20463;-73
2020/12/26 08:21:21;;;;;;;14.10;12.65;;;-1.60;71.10;;;;;;4938979;29;20058;-73
2020/12/26 08:24:00;;;;;;;13.85;12.35;;;-1.60;70.60;;;;;;4926506;30;20043;-73
2020/12/26 08:26:32;;;;;;;13.15;11.77;;;-1.60;70.90;;;;;;4926505;29;20048;-74
2020/12/26 08:29:05;;;;;;;12.15;11.05;;;-1.60;71.20;;;;;;4927023;30;22004;-73
2020/12/26 08:31:37;;;;;;;12.13;11.02;;;-1.60;69.50;;;;;;4925941;29;20048;-74
2020/12/26 08:34:20;;;;;;;11.75;10.75;;;-1.70;70.20;;;;;;4927056;30;20055;-74
2020/12/26 08:37:09;;;;;;;11.43;10.40;;;-1.80;70.00;;;;;;4926150;29;20051;-72
2020/12/26 08:39:41;;;;;;;12.68;11.48;;;-1.70;69.40;;;;;;4926281;30;20059;-72
2020/12/26 08:42:18;;;;;;;11.70;10.70;;;-1.70;70.10;;;;;;4925347;29;20116;-73
2020/12/26 08:44:49;;;;;;;12.48;11.35;;;-1.60;70.10;;;;;;4925027;30;20036;-73
2020/12/26 08:47:31;;;;;;;12.48;11.38;;;-1.50;70.40;;;;;;4926276;30;20055;-73
2020/12/26 08:50:03;;;;;;;13.20;12.00;;;-1.50;70.40;;;;;;4925863;30;20614;-73
2020/12/26 08:52:35;;;;;;;13.82;12.43;;;-1.50;70.00;;;;;;4921664;29;20091;-74
2020/12/26 08:55:08;;;;;;;13.50;12.20;;;-1.40;69.80;;;;;;4936647;29;20708;-74
2020/12/26 08:57:40;;;;;;;12.68;11.48;;;-1.40;69.70;;;;;;4938583;29;20047;-73
2020/12/26 09:00:19;;;;;;;12.93;11.73;;;-1.30;69.50;;;;;;4926019;29;20067;-74
2020/12/26 09:02:53;;;;;;;12.70;11.60;;;-1.30;69.10;;;;;;4922791;30;20067;-73
2020/12/26 09:05:30;;;;;;;12.27;11.10;;;-1.20;68.90;;;;;;4937404;29;20085;-73
2020/12/26 09:08:06;;;;;;;11.95;10.82;;;-1.30;68.90;;;;;;4941613;29;20135;-73
2020/12/26 09:10:39;;;;;;;12.18;10.98;;;-1.30;68.70;;;;;;4922573;30;20539;-72
2020/12/26 09:13:13;;;;;;;13.30;11.95;;;-1.20;68.70;;;;;;4925943;30;20086;-72
2020/12/26 09:16:05;;;;;;;11.73;10.70;;;-1.30;68.50;;;;;;4921739;29;20581;-73
2020/12/26 09:18:47;;;;;;;12.55;11.23;;;-1.20;68.50;;;;;;4927919;30;20055;-73
2020/12/26 09:21:26;;;;;;;11.90;10.85;;;-1.20;68.30;;;;;;4925234;29;20067;-75
2020/12/26 09:23:58;;;;;;;12.50;11.30;;;-1.20;67.70;;;;;;4919736;30;20180;-75
2020/12/26 09:26:36;;;;;;;12.75;11.52;;;-1.20;68.10;;;;;;4927539;29;20151;-74
2020/12/26 09:29:08;;;;;;;12.90;11.70;;;-1.10;68.30;;;;;;4925652;29;20148;-75
2020/12/26 09:31:40;;;;;;;11.82;10.73;;;-1.00;68.00;;;;;;4924117;29;20055;-75
2020/12/26 09:34:22;;;;;;;13.13;11.93;;;-1.00;67.90;;;;;;4926408;30;20105;-75
2020/12/26 09:37:08;;;;;;;12.65;11.48;;;-0.90;68.10;;;;;;4925566;29;20104;-75
2020/12/26 09:39:39;;;;;;;13.20;12.00;;;-1.00;68.90;;;;;;4923856;30;20083;-75
2020/12/26 09:42:11;;;;;;;12.85;11.75;;;-0.90;68.70;;;;;;4924344;30;20177;-75
2020/12/26 09:44:42;;;;;;;12.27;11.15;;;-0.80;69.10;;;;;;4921395;30;20218;-75
2020/12/26 09:47:14;;;;;;;14.75;13.23;;;-0.70;69.30;;;;;;4923870;30;20594;-75
2020/12/26 09:49:45;;;;;;;22.50;16.48;;;-0.50;69.30;;;;;;4927071;29;20047;-75
2020/12/26 09:52:17;;;;;;;21.15;16.52;;;-0.40;68.70;;;;;;4927839;29;20051;-75
2020/12/26 09:54:48;;;;;;;16.15;14.10;;;-0.30;68.90;;;;;;4923802;30;20052;-75
2020/12/26 09:57:20;;;;;;;17.85;14.95;;;-0.20;68.50;;;;;;4925307;29;20055;-75
2020/12/26 09:59:51;;;;;;;15.85;14.10;;;-0.10;69.00;;;;;;4918087;30;20062;-75
2020/12/26 10:02:23;;;;;;;14.00;12.60;;;0.00;68.60;;;;;;4924120;29;20056;-74
2020/12/26 10:04:58;;;;;;;13.15;11.85;;;0.00;68.00;;;;;;4924635;30;20036;-76
2020/12/26 10:07:32;;;;;;;14.02;12.10;;;-0.10;68.00;;;;;;4925295;29;20359;-76
2020/12/26 10:10:04;;;;;;;14.50;13.10;;;0.00;68.20;;;;;;4925179;30;20060;-76
2020/12/26 10:12:36;;;;;;;13.65;12.30;;;0.10;68.30;;;;;;4938397;29;20066;-76
2020/12/26 10:15:08;;;;;;;13.48;12.18;;;0.20;67.90;;;;;;4939234;29;20570;-75
2020/12/26 10:17:40;;;;;;;14.18;12.88;;;0.30;67.10;;;;;;4918407;30;20051;-75
2020/12/26 10:20:11;;;;;;;13.10;11.90;;;0.50;67.10;;;;;;4923462;29;20056;-75
2020/12/26 10:22:43;;;;;;;12.48;11.32;;;0.50;65.60;;;;;;4923813;30;20073;-75
2020/12/26 10:25:14;;;;;;;13.20;12.10;;;0.40;65.70;;;;;;4938544;29;20138;-75
2020/12/26 10:27:46;;;;;;;12.98;11.88;;;0.50;65.60;;;;;;4924406;30;20036;-76
2020/12/26 10:30:18;;;;;;;13.35;12.15;;;0.60;65.60;;;;;;4924382;29;20122;-76
2020/12/26 10:32:49;;;;;;;14.02;12.75;;;0.60;64.30;;;;;;4938681;29;20058;-75
2020/12/26 10:35:21;;;;;;;12.70;11.43;;;0.40;64.50;;;;;;4923470;29;20042;-76
2020/12/26 10:37:52;;;;;;;13.15;11.95;;;0.50;66.00;;;;;;4938668;29;20515;-76
2020/12/26 10:40:24;;;;;;;12.52;11.43;;;0.60;64.30;;;;;;4921346;29;20059;-76
2020/12/26 10:42:55;;;;;;;12.05;11.05;;;0.70;65.20;;;;;;4924413;30;20128;-75
2020/12/26 10:45:27;;;;;;;12.80;11.65;;;0.80;62.60;;;;;;4923474;29;20871;-75
2020/12/26 10:47:58;;;;;;;12.50;11.50;;;0.80;61.30;;;;;;4923533;30;20132;-74
2020/12/26 10:50:30;;;;;;;12.88;11.77;;;0.90;63.80;;;;;;4920833;29;20462;-74
2020/12/26 10:53:01;;;;;;;12.80;11.73;;;1.00;63.90;;;;;;4925424;30;20051;-74
2020/12/26 10:55:33;;;;;;;13.02;11.82;;;1.10;63.00;;;;;;4923998;29;20063;-74
2020/12/26 10:58:05;;;;;;;13.25;12.05;;;1.20;63.00;;;;;;4924264;30;20051;-75
2020/12/26 11:00:36;;;;;;;13.77;12.55;;;1.30;63.50;;;;;;4922569;29;20483;-76
2020/12/26 11:03:08;;;;;;;13.98;12.77;;;1.60;63.60;;;;;;4924503;30;20051;-72
2020/12/26 11:05:39;;;;;;;12.85;11.75;;;1.70;62.50;;;;;;4932854;29;20067;-75
2020/12/26 11:08:11;;;;;;;13.70;12.43;;;1.80;62.20;;;;;;4924704;30;20609;-75
2020/12/26 11:10:44;;;;;;;13.55;12.45;;;1.90;62.30;;;;;;4936633;29;20052;-74
2020/12/26 11:13:15;;;;;;;12.80;11.70;;;2.00;60.40;;;;;;4923787;30;20075;-75
2020/12/26 11:15:47;;;;;;;12.63;11.52;;;2.00;60.40;;;;;;4933579;29;20512;-75
2020/12/26 11:18:18;;;;;;;14.05;12.85;;;2.10;61.10;;;;;;4922625;30;20044;-75
2020/12/26 11:20:50;;;;;;;14.60;13.30;;;2.20;61.50;;;;;;4924206;29;20826;-73
2020/12/26 11:23:21;;;;;;;14.27;12.98;;;2.30;61.90;;;;;;4924105;30;20060;-74
2020/12/26 11:25:53;;;;;;;16.10;14.55;;;2.20;61.10;;;;;;4924274;29;20048;-73
2020/12/26 11:28:40;;;;;;;15.27;13.80;;;2.20;61.70;;;;;;4924377;30;20055;-75
2020/12/26 11:31:25;;;;;;;15.82;14.32;;;2.10;61.90;;;;;;4921463;30;20052;-74
2020/12/26 11:33:57;;;;;;;15.38;13.77;;;2.10;61.50;;;;;;4927363;30;20051;-75
2020/12/26 11:36:29;;;;;;;17.42;14.15;;;2.10;62.00;;;;;;4928553;29;20056;-74
2020/12/26 11:39:01;;;;;;;15.48;13.98;;;2.10;61.90;;;;;;4942943;29;20048;-74
2020/12/26 11:41:32;;;;;;;15.27;13.77;;;2.20;62.10;;;;;;4946274;29;20059;-75
2020/12/26 11:44:04;;;;;;;14.57;13.27;;;2.30;61.60;;;;;;4926673;30;20071;-74
2020/12/26 11:46:35;;;;;;;15.35;13.95;;;2.40;61.60;;;;;;4921598;29;20586;-74
2020/12/26 11:49:07;;;;;;;14.63;13.32;;;2.40;61.80;;;;;;4926065;30;20123;-74
2020/12/26 11:51:38;;;;;;;13.48;12.18;;;2.60;61.40;;;;;;4923740;29;20492;-74
2020/12/26 11:54:09;;;;;;;13.35;12.15;;;2.60;60.60;;;;;;4927073;30;20075;-74
2020/12/26 11:56:53;;;;;;;13.88;12.60;;;2.70;60.90;;;;;;4938135;29;20131;-75
2020/12/26 11:59:25;;;;;;;14.35;13.05;;;2.80;60.40;;;;;;4929021;30;20641;-74
2020/12/26 12:01:57;;;;;;;13.00;11.90;;;2.80;59.00;;;;;;4939571;29;20059;-74
2020/12/26 12:04:28;;;;;;;13.27;12.18;;;2.80;59.10;;;;;;4945238;29;20122;-74
2020/12/26 12:07:00;;;;;;;13.15;11.85;;;2.70;59.30;;;;;;4928000;29;20589;-74
2020/12/26 12:09:31;;;;;;;13.25;12.15;;;2.60;57.70;;;;;;4928497;30;20523;-74
2020/12/26 12:12:03;;;;;;;13.48;12.38;;;2.50;58.40;;;;;;4928001;29;20433;-75
2020/12/26 12:14:34;;;;;;;13.00;11.90;;;2.50;58.80;;;;;;4942515;29;20747;-75
2020/12/26 12:17:06;;;;;;;12.80;11.80;;;2.50;59.00;;;;;;4925294;30;20059;-75
2020/12/26 12:19:37;;;;;;;12.88;11.88;;;2.50;58.30;;;;;;4925098;29;20056;-75
2020/12/26 12:22:09;;;;;;;12.32;11.32;;;2.40;58.70;;;;;;4924232;29;20128;-74
2020/12/26 12:24:41;;;;;;;12.50;11.50;;;2.50;59.10;;;;;;4926981;30;20058;-75
2020/12/26 12:27:13;;;;;;;12.85;11.85;;;2.50;57.90;;;;;;4925114;30;20048;-77
2020/12/26 12:29:44;;;;;;;11.85;10.85;;;2.50;58.30;;;;;;4926341;30;20055;-77
2020/12/26 12:32:15;;;;;;;11.98;11.00;;;2.60;55.80;;;;;;4921860;30;20505;-77
2020/12/26 12:34:47;;;;;;;12.30;11.32;;;2.60;56.10;;;;;;4940168;29;20052;-76
2020/12/26 12:37:18;;;;;;;27.63;21.38;;;2.70;56.60;;;;;;4924037;30;20708;-77
2020/12/26 12:39:50;;;;;;;19.60;17.15;;;2.70;55.20;;;;;;4905745;30;20071;-75
2020/12/26 12:42:21;;;;;;;12.63;11.63;;;2.60;55.40;;;;;;4926146;29;20048;-77
2020/12/26 12:44:53;;;;;;;12.25;11.05;;;2.60;56.10;;;;;;4926214;30;20052;-75
2020/12/26 12:47:26;;;;;;;12.32;11.32;;;2.60;56.40;;;;;;4924889;29;20920;-76
2020/12/26 12:49:57;;;;;;;12.75;11.75;;;2.50;55.80;;;;;;4937930;29;20525;-76
2020/12/26 12:52:29;;;;;;;12.27;11.30;;;2.50;57.10;;;;;;4940232;29;20044;-74
2020/12/26 12:55:00;;;;;;;12.15;11.10;;;2.50;56.70;;;;;;4941736;29;20059;-76
2020/12/26 12:57:33;;;;;;;12.10;11.07;;;2.40;57.30;;;;;;4927532;30;20059;-75
2020/12/26 13:00:05;;;;;;;11.95;11.05;;;2.20;55.20;;;;;;4944105;29;20430;-78
2020/12/26 13:02:36;;;;;;;12.65;11.52;;;2.30;57.70;;;;;;4918792;30;20142;-76